AirNav   Phillips 66 Aviation Fuel
 
 1062 users online  

87KS Holyrood Municipal Airport
Holyrood, Kansas, USA

GOING TO HOLYROOD?


FAA INFORMATION EFFECTIVE 20 JULY 2017

Location

FAA Identifier: 87KS
Lat/Long: 38-35-07.6000N / 098-24-16.8000W
38-35.126667N / 098-24.280000W
38.5854444 / -98.4046667
(estimated)
Elevation: 1809 ft. / 551 m (estimated)
Variation: 07E (1985)
From city: 1 mile SE of HOLYROOD, KS
Time zone: UTC -5 (UTC -6 during Standard Time)
Zip code: 67450

Airport Operations

Airport use: Private use. Permission required prior to landing
Activation date: 06/1947
Control tower: no
ARTCC: KANSAS CITY CENTER
FSS: WICHITA FLIGHT SERVICE STATION
Attendance: UNATNDD
Wind indicator: yes
Segmented circle: no

Airport Communications

WX AWOS-3 at 9K7 (13 nm NE): 119.675 (785-472-5609)

Nearby radio navigation aids

NDB name  Hdg/Dist  Freq  Var  ID
LYONS324/16.638606ELYO .-.. -.-- ---

Airport Services

Airframe service: NONE
Powerplant service: NONE

Runway Information

Runway 17/35

Dimensions: 1650 x 100 ft. / 503 x 30 m
Surface: turf, in good condition
RUNWAY 17  RUNWAY 35
Latitude: 38-35.263167N38-34.991167N
Longitude: 098-24.277500W098-24.280333W
Elevation: 1809.0 ft.1797.0 ft.
Traffic pattern: leftleft
Runway heading: 173 magnetic, 180 true353 magnetic, 000 true
Obstructions: 50 ft. poles, lighted, 350 ft. from runway15 ft. trees, 185 ft. from runway, 67 ft. left of centerline, 12:1 slope to clear

Airport Ownership and Management from official FAA records

Ownership: Publicly-owned
Owner: CITY OF HOLYROOD
BOX 67
HOLYROOD, KS 67450
Phone 913-252-3652
Manager: NEYSA BROWN
CITY OF HOLYROOD, BOX 67
HOLYROOD, KS 67450
Phone 913-252-3652

Airport Operational Statistics

Aircraft operations: avg 42/month *
60% local general aviation
40% transient general aviation
* for 12-month period ending 13 November 1984

Instrument Procedures

There are no published instrument procedures at 87KS.

Some nearby airports with instrument procedures:

KLYO - Lyons-Rice County Municipal Airport (17 nm SE)
KRSL - Russell Municipal Airport (26 nm NW)
KGBD - Great Bend Municipal Airport (26 nm SW)
KMPR - Mc Pherson Airport (36 nm E)
KSLN - Salina Regional Airport (37 nm E)
 
Loc | Ops | Rwys | IFR | FBO | Links
Com | Nav | Svcs | Stats | Notes

Kansas City Aviation Department
 
Area around 87KS (Holyrood Municipal Airport)
 
Road maps at: MapQuest Bing Google
 
Aerial photo
No photo
 
Sectional chart

 
Airport distance calculator
Flying to Holyrood Municipal Airport? Find the distance to fly.

From to 87KS

Sunrise and sunset
Times for 22-Jul-2017
 Local
(UTC-5)
 Zulu
(UTC)
Morning civil twilight05:5710:57
Sunrise06:2811:28
Sunset20:5201:52
Evening civil twilight21:2302:23

Current date and time
Zulu (UTC)  22-Jul-2017 18:15:21
Local (UTC-5)  22-Jul-2017 13:15:21
 
METAR
KRSL 
26nm NW 
221753Z AUTO VRB03KT 10SM CLR 36/15 A2987 RMK AO2 SLP089 T03610150 10367 20228 58001
KSLN 
37nm E 
221753Z 25005KT 10SM CLR 40/16 A2984 RMK AO2 SLP085 T04000156 10406 20283 58003
KHUT 
40nm SE 
221752Z 22009G16KT 10SM CLR 39/17 A2987 RMK AO2 SLP083 T03890167 10389 20261 58001 $
KHYS 
43nm W 
221756Z AUTO 24006KT 10SM CLR 36/17 A2989 RMK AO2 SLP099 T03610172 10361 20206 58001
TAF
KRSL 
26nm NW 
221720Z 2218/2318 22008KT P6SM SKC FM222000 15006KT P6SM SCT070 FM222300 06010KT P6SM VCTS BKN070CB FM230300 06009KT P6SM VCTS SCT045CB BKN110 FM230600 06008KT P6SM BKN120
KGBD 
26nm SW 
221720Z 2218/2318 22008KT P6SM SKC FM222200 16008KT P6SM SCT070 FM230000 10010KT P6SM SCT070 BKN250 FM230300 05012KT P6SM SCT070 BKN250 FM230600 06007KT P6SM BKN200 AMD NOT SKED
NOTAMs
Click for the latest NOTAMs
NOTAMs are issued by the DoD/FAA and will open in a separate window not controlled by AirNav.

 

 
 

Would you like to see your business listed on this page?

 If your business provides an interesting product or service to pilots, flight crews, aircraft, or users of the Holyrood Municipal Airport, you should consider listing it here.  To start the listing process, click on the button below
 
Add a business
 

Other Pages about Holyrood Municipal Airport

Update a link
 
Copyright © AirNav, LLC. All rights reserved. Privacy Policy  Contact